N337QS KADS-KCRP
Flight info
| Callsign | N337QS |
|---|---|
| Flight time | 1h 3m |
| Altitude | 31000 |
| Route | JPOOL8 WINDU |
| Aircraft | E55P/M-SBDFGHJ2RWY/LB2 |
Departure
| Time | 2026-04-25 17:09 |
|---|---|
| Airport | Addison Airport (KADS) |
Arrival
| Time | 2026-04-25 18:12 |
|---|---|
| Airport | Corpus Christi International Airport (KCRP) |
| Time | Latitude | Longitude | Altitude | Speed | Heading |
|---|---|---|---|---|---|
| 2026-04-25 16:33 | 32.97046 | -96.83459 | 640 ft | 0 kts | 247° |
| 2026-04-25 17:00 | 32.97046 | -96.83460 | 640 ft | 0 kts | 247° |
| 2026-04-25 17:00 | 32.97045 | -96.83463 | 640 ft | 0 kts | 246° |
| 2026-04-25 17:01 | 32.97041 | -96.83474 | 640 ft | 2 kts | 246° |
| 2026-04-25 17:01 | 32.97034 | -96.83494 | 640 ft | 3 kts | 246° |
| 2026-04-25 17:01 | 32.97021 | -96.83524 | 639 ft | 5 kts | 226° |
| 2026-04-25 17:01 | 32.96981 | -96.83534 | 639 ft | 6 kts | 207° |
| 2026-04-25 17:02 | 32.96964 | -96.83584 | 638 ft | 7 kts | 295° |
| 2026-04-25 17:02 | 32.97008 | -96.83611 | 638 ft | 7 kts | 341° |
| 2026-04-25 17:02 | 32.97066 | -96.83635 | 637 ft | 9 kts | 340° |
| 2026-04-25 17:02 | 32.97136 | -96.83665 | 637 ft | 11 kts | 340° |
| 2026-04-25 17:03 | 32.97218 | -96.83702 | 635 ft | 13 kts | 340° |
| 2026-04-25 17:03 | 32.97316 | -96.83746 | 634 ft | 16 kts | 339° |
| 2026-04-25 17:03 | 32.97423 | -96.83791 | 634 ft | 16 kts | 340° |
| 2026-04-25 17:03 | 32.97531 | -96.83838 | 634 ft | 16 kts | 340° |
| 2026-04-25 17:04 | 32.97635 | -96.83883 | 635 ft | 15 kts | 341° |
| 2026-04-25 17:04 | 32.97720 | -96.83920 | 636 ft | 12 kts | 339° |
| 2026-04-25 17:04 | 32.97780 | -96.83946 | 637 ft | 2 kts | 332° |
| 2026-04-25 17:04 | 32.97786 | -96.83955 | 637 ft | 0 kts | 283° |
| 2026-04-25 17:07 | 32.97786 | -96.83956 | 637 ft | 0 kts | 283° |
| 2026-04-25 17:07 | 32.97789 | -96.83974 | 636 ft | 4 kts | 271° |
| 2026-04-25 17:08 | 32.97773 | -96.84023 | 636 ft | 8 kts | 229° |
| 2026-04-25 17:08 | 32.97734 | -96.84029 | 635 ft | 6 kts | 159° |
| 2026-04-25 17:08 | 32.97521 | -96.83940 | 632 ft | 73 kts | 162° |
| 2026-04-25 17:08 | 32.96793 | -96.83604 | 717 ft | 138 kts | 161° |
| 2026-04-25 17:09 | 32.95870 | -96.83135 | 1269 ft | 158 kts | 159° |
| 2026-04-25 17:09 | 32.94803 | -96.82718 | 1952 ft | 176 kts | 181° |
| 2026-04-25 17:09 | 32.93697 | -96.83389 | 2750 ft | 194 kts | 234° |
| 2026-04-25 17:09 | 32.93393 | -96.84875 | 3871 ft | 196 kts | 269° |
| 2026-04-25 17:10 | 32.93407 | -96.86460 | 4907 ft | 197 kts | 266° |
| 2026-04-25 17:10 | 32.93393 | -96.88200 | 5298 ft | 235 kts | 266° |
| 2026-04-25 17:10 | 32.93264 | -96.90324 | 5561 ft | 273 kts | 253° |
| 2026-04-25 17:10 | 32.92539 | -96.92381 | 6604 ft | 274 kts | 242° |
| 2026-04-25 17:11 | 32.91672 | -96.94338 | 7767 ft | 267 kts | 238° |
| 2026-04-25 17:11 | 32.90762 | -96.96227 | 8649 ft | 269 kts | 238° |
| 2026-04-25 17:11 | 32.89817 | -96.98153 | 9411 ft | 275 kts | 238° |
| 2026-04-25 17:11 | 32.88846 | -97.00127 | 10222 ft | 279 kts | 238° |
| 2026-04-25 17:12 | 32.87875 | -97.02089 | 11075 ft | 282 kts | 238° |
| 2026-04-25 17:12 | 32.86523 | -97.03725 | 11860 ft | 286 kts | 209° |
| 2026-04-25 17:12 | 32.84575 | -97.04243 | 12605 ft | 296 kts | 181° |
| 2026-04-25 17:12 | 32.82394 | -97.04209 | 12706 ft | 328 kts | 184° |
| 2026-04-25 17:13 | 32.80049 | -97.04270 | 13094 ft | 345 kts | 184° |
| 2026-04-25 17:13 | 32.79257 | -97.04292 | 13363 ft | 345 kts | 184° |
| 2026-04-25 17:13 | 32.75277 | -97.04414 | 14990 ft | 344 kts | 186° |
| 2026-04-25 17:13 | 32.72867 | -97.04488 | 15886 ft | 348 kts | 187° |
| 2026-04-25 17:14 | 32.70448 | -97.04571 | 16632 ft | 353 kts | 187° |
| 2026-04-25 17:14 | 32.67966 | -97.04651 | 17386 ft | 358 kts | 187° |
| 2026-04-25 17:14 | 32.65460 | -97.04730 | 18122 ft | 362 kts | 187° |
| 2026-04-25 17:14 | 32.62921 | -97.04813 | 18874 ft | 366 kts | 187° |
| 2026-04-25 17:15 | 32.60372 | -97.04894 | 19609 ft | 369 kts | 187° |
| 2026-04-25 17:15 | 32.57788 | -97.04976 | 20304 ft | 372 kts | 187° |
| 2026-04-25 17:15 | 32.55212 | -97.05056 | 20989 ft | 375 kts | 187° |
| 2026-04-25 17:15 | 32.52583 | -97.05140 | 21695 ft | 377 kts | 188° |
| 2026-04-25 17:16 | 32.49990 | -97.05219 | 22463 ft | 376 kts | 188° |
| 2026-04-25 17:16 | 32.47377 | -97.05303 | 23282 ft | 374 kts | 188° |
| 2026-04-25 17:16 | 32.44792 | -97.05377 | 24082 ft | 372 kts | 189° |
| 2026-04-25 17:16 | 32.42238 | -97.05459 | 24799 ft | 372 kts | 189° |
| 2026-04-25 17:17 | 32.39650 | -97.05541 | 25515 ft | 371 kts | 189° |
| 2026-04-25 17:17 | 32.37083 | -97.05621 | 26227 ft | 370 kts | 190° |
| 2026-04-25 17:17 | 32.34502 | -97.05703 | 26938 ft | 369 kts | 190° |
| 2026-04-25 17:17 | 32.31952 | -97.05783 | 27660 ft | 367 kts | 191° |
| 2026-04-25 17:18 | 32.29379 | -97.05862 | 28323 ft | 367 kts | 191° |
| 2026-04-25 17:18 | 32.26848 | -97.05943 | 28998 ft | 365 kts | 192° |
| 2026-04-25 17:18 | 32.24305 | -97.06022 | 29710 ft | 363 kts | 192° |
| 2026-04-25 17:18 | 32.21811 | -97.06102 | 30359 ft | 361 kts | 193° |
| 2026-04-25 17:19 | 32.19277 | -97.06186 | 30797 ft | 367 kts | 193° |
| 2026-04-25 17:19 | 32.16687 | -97.06280 | 30854 ft | 383 kts | 192° |
| 2026-04-25 17:19 | 32.13943 | -97.06369 | 30857 ft | 399 kts | 192° |
| 2026-04-25 17:19 | 32.11120 | -97.06458 | 30858 ft | 413 kts | 191° |
| 2026-04-25 17:20 | 32.05293 | -97.06632 | 30850 ft | 423 kts | 191° |
| 2026-04-25 17:20 | 31.99363 | -97.06816 | 30845 ft | 424 kts | 191° |
| 2026-04-25 17:21 | 31.93417 | -97.07003 | 30859 ft | 435 kts | 191° |
| 2026-04-25 17:21 | 31.87294 | -97.07192 | 30850 ft | 443 kts | 191° |
| 2026-04-25 17:22 | 31.83146 | -97.07323 | 30852 ft | 447 kts | 190° |
| 2026-04-25 17:22 | 31.74806 | -97.07581 | 30847 ft | 454 kts | 190° |
| 2026-04-25 17:23 | 31.68433 | -97.07779 | 30850 ft | 458 kts | 190° |
| 2026-04-25 17:23 | 31.62019 | -97.07979 | 30850 ft | 462 kts | 190° |
| 2026-04-25 17:24 | 31.55582 | -97.08176 | 30850 ft | 464 kts | 190° |
| 2026-04-25 17:24 | 31.49179 | -97.08698 | 30846 ft | 461 kts | 194° |
| 2026-04-25 17:25 | 31.42774 | -97.09441 | 30847 ft | 463 kts | 194° |
| 2026-04-25 17:25 | 31.36351 | -97.10181 | 30842 ft | 461 kts | 194° |
| 2026-04-25 17:26 | 31.29990 | -97.10913 | 30832 ft | 459 kts | 194° |
| 2026-04-25 17:26 | 31.23649 | -97.11643 | 30839 ft | 457 kts | 194° |
| 2026-04-25 17:27 | 31.17329 | -97.12370 | 30837 ft | 455 kts | 194° |
| 2026-04-25 17:27 | 31.13119 | -97.12854 | 30837 ft | 454 kts | 194° |
| 2026-04-25 17:28 | 31.04734 | -97.13814 | 30841 ft | 453 kts | 194° |
| 2026-04-25 17:28 | 30.98473 | -97.14531 | 30835 ft | 452 kts | 194° |
| 2026-04-25 17:29 | 30.92211 | -97.15247 | 30848 ft | 451 kts | 194° |
| 2026-04-25 17:29 | 30.85973 | -97.15959 | 30856 ft | 451 kts | 194° |
| 2026-04-25 17:30 | 30.79706 | -97.16674 | 30851 ft | 451 kts | 194° |
| 2026-04-25 17:30 | 30.73448 | -97.17385 | 30857 ft | 450 kts | 194° |
| 2026-04-25 17:31 | 30.67223 | -97.18095 | 30852 ft | 450 kts | 194° |
| 2026-04-25 17:31 | 30.60997 | -97.18801 | 30855 ft | 450 kts | 194° |
| 2026-04-25 17:32 | 30.54763 | -97.19508 | 30850 ft | 450 kts | 194° |
| 2026-04-25 17:32 | 30.48501 | -97.20217 | 30851 ft | 450 kts | 194° |
| 2026-04-25 17:33 | 30.42264 | -97.20923 | 30847 ft | 450 kts | 194° |
| 2026-04-25 17:33 | 30.36043 | -97.21623 | 30819 ft | 451 kts | 194° |
| 2026-04-25 17:34 | 30.32921 | -97.21972 | 30500 ft | 446 kts | 194° |
| 2026-04-25 17:34 | 30.29835 | -97.22327 | 29968 ft | 447 kts | 194° |
| 2026-04-25 17:34 | 30.26755 | -97.22675 | 29452 ft | 443 kts | 194° |
| 2026-04-25 17:34 | 30.23686 | -97.23023 | 28941 ft | 438 kts | 193° |
| 2026-04-25 17:35 | 30.20695 | -97.23357 | 28432 ft | 434 kts | 193° |
| 2026-04-25 17:35 | 30.17687 | -97.23696 | 27911 ft | 430 kts | 193° |
| 2026-04-25 17:35 | 30.14708 | -97.24029 | 27394 ft | 426 kts | 193° |
| 2026-04-25 17:35 | 30.11799 | -97.24362 | 26885 ft | 422 kts | 193° |
| 2026-04-25 17:36 | 30.08882 | -97.24684 | 26375 ft | 418 kts | 193° |
| 2026-04-25 17:36 | 30.05986 | -97.25011 | 25867 ft | 414 kts | 193° |
| 2026-04-25 17:36 | 30.03138 | -97.25330 | 25360 ft | 411 kts | 193° |
| 2026-04-25 17:36 | 30.00327 | -97.25645 | 24854 ft | 407 kts | 192° |
| 2026-04-25 17:37 | 29.97521 | -97.25961 | 24348 ft | 403 kts | 192° |
| 2026-04-25 17:37 | 29.94734 | -97.26272 | 23828 ft | 400 kts | 192° |
| 2026-04-25 17:37 | 29.91956 | -97.26584 | 23307 ft | 396 kts | 192° |
| 2026-04-25 17:37 | 29.89264 | -97.26883 | 22802 ft | 392 kts | 192° |
| 2026-04-25 17:38 | 29.86525 | -97.27188 | 22281 ft | 389 kts | 191° |
| 2026-04-25 17:38 | 29.85636 | -97.27288 | 22113 ft | 388 kts | 191° |
| 2026-04-25 17:38 | 29.81187 | -97.27786 | 21258 ft | 382 kts | 191° |
| 2026-04-25 17:38 | 29.78563 | -97.28077 | 20755 ft | 379 kts | 191° |
| 2026-04-25 17:39 | 29.75946 | -97.28371 | 20246 ft | 376 kts | 191° |
| 2026-04-25 17:39 | 29.73370 | -97.28657 | 19743 ft | 373 kts | 191° |
| 2026-04-25 17:39 | 29.70767 | -97.28997 | 19225 ft | 366 kts | 198° |
| 2026-04-25 17:39 | 29.68360 | -97.29786 | 18736 ft | 361 kts | 200° |
| 2026-04-25 17:40 | 29.65933 | -97.30586 | 18223 ft | 358 kts | 201° |
| 2026-04-25 17:40 | 29.63557 | -97.31393 | 17702 ft | 356 kts | 201° |
| 2026-04-25 17:40 | 29.61199 | -97.32201 | 17177 ft | 354 kts | 201° |
| 2026-04-25 17:40 | 29.58833 | -97.33010 | 16648 ft | 352 kts | 201° |
| 2026-04-25 17:41 | 29.56510 | -97.33807 | 16134 ft | 350 kts | 201° |
| 2026-04-25 17:41 | 29.54192 | -97.34602 | 15616 ft | 348 kts | 201° |
| 2026-04-25 17:41 | 29.51874 | -97.35395 | 15101 ft | 346 kts | 200° |
| 2026-04-25 17:41 | 29.49573 | -97.36179 | 14585 ft | 344 kts | 200° |
| 2026-04-25 17:42 | 29.47284 | -97.36963 | 14067 ft | 342 kts | 200° |
| 2026-04-25 17:42 | 29.44984 | -97.37749 | 13548 ft | 340 kts | 200° |
| 2026-04-25 17:42 | 29.42734 | -97.38516 | 13040 ft | 339 kts | 200° |
| 2026-04-25 17:42 | 29.40468 | -97.39291 | 12518 ft | 337 kts | 199° |
| 2026-04-25 17:43 | 29.38240 | -97.40052 | 12009 ft | 335 kts | 199° |
| 2026-04-25 17:43 | 29.36011 | -97.40813 | 11494 ft | 329 kts | 199° |
| 2026-04-25 17:43 | 29.33876 | -97.41540 | 10984 ft | 316 kts | 199° |
| 2026-04-25 17:43 | 29.31800 | -97.42246 | 10472 ft | 305 kts | 199° |
| 2026-04-25 17:44 | 29.29815 | -97.42923 | 10110 ft | 294 kts | 199° |
| 2026-04-25 17:44 | 29.27881 | -97.43581 | 9812 ft | 289 kts | 199° |
| 2026-04-25 17:44 | 29.25949 | -97.44243 | 9519 ft | 287 kts | 198° |
| 2026-04-25 17:44 | 29.24026 | -97.44886 | 9221 ft | 285 kts | 198° |
| 2026-04-25 17:45 | 29.22156 | -97.45531 | 8943 ft | 283 kts | 198° |
| 2026-04-25 17:45 | 29.21524 | -97.45749 | 8846 ft | 282 kts | 198° |
| 2026-04-25 17:45 | 29.18397 | -97.46815 | 8402 ft | 278 kts | 197° |
| 2026-04-25 17:45 | 29.16543 | -97.47440 | 8204 ft | 278 kts | 197° |
| 2026-04-25 17:46 | 29.14676 | -97.48073 | 8071 ft | 278 kts | 197° |
| 2026-04-25 17:46 | 29.12818 | -97.48705 | 7934 ft | 277 kts | 196° |
| 2026-04-25 17:46 | 29.10970 | -97.49328 | 7800 ft | 276 kts | 197° |
| 2026-04-25 17:46 | 29.09152 | -97.49942 | 7617 ft | 274 kts | 197° |
| 2026-04-25 17:47 | 29.07331 | -97.50559 | 7364 ft | 273 kts | 197° |
| 2026-04-25 17:47 | 29.05511 | -97.51174 | 7116 ft | 271 kts | 197° |
| 2026-04-25 17:47 | 29.03690 | -97.51801 | 6860 ft | 270 kts | 197° |
| 2026-04-25 17:47 | 29.01895 | -97.52402 | 6579 ft | 268 kts | 197° |
| 2026-04-25 17:48 | 28.98317 | -97.53617 | 5945 ft | 266 kts | 196° |
| 2026-04-25 17:48 | 28.96553 | -97.54219 | 5642 ft | 265 kts | 197° |
| 2026-04-25 17:48 | 28.94799 | -97.54809 | 5369 ft | 264 kts | 196° |
| 2026-04-25 17:49 | 28.93030 | -97.55406 | 5127 ft | 262 kts | 196° |
| 2026-04-25 17:49 | 28.91288 | -97.55994 | 4887 ft | 261 kts | 196° |
| 2026-04-25 17:49 | 28.89545 | -97.56583 | 4647 ft | 260 kts | 196° |
| 2026-04-25 17:49 | 28.87806 | -97.57170 | 4407 ft | 258 kts | 196° |
| 2026-04-25 17:50 | 28.86099 | -97.57747 | 4170 ft | 256 kts | 196° |
| 2026-04-25 17:50 | 28.84391 | -97.58324 | 3932 ft | 254 kts | 196° |
| 2026-04-25 17:50 | 28.82695 | -97.58896 | 3694 ft | 252 kts | 196° |
| 2026-04-25 17:50 | 28.81016 | -97.59463 | 3464 ft | 250 kts | 196° |
| 2026-04-25 17:51 | 28.79349 | -97.60025 | 3246 ft | 248 kts | 196° |
| 2026-04-25 17:51 | 28.77693 | -97.60584 | 3024 ft | 246 kts | 196° |
| 2026-04-25 17:51 | 28.76062 | -97.61134 | 2801 ft | 244 kts | 196° |
| 2026-04-25 17:51 | 28.74428 | -97.61682 | 2563 ft | 242 kts | 196° |
| 2026-04-25 17:52 | 28.72831 | -97.62220 | 2316 ft | 240 kts | 196° |
| 2026-04-25 17:52 | 28.72302 | -97.62399 | 2234 ft | 239 kts | 196° |
| 2026-04-25 17:52 | 28.69713 | -97.63271 | 2102 ft | 225 kts | 196° |
| 2026-04-25 17:52 | 28.68205 | -97.63779 | 2099 ft | 221 kts | 196° |
| 2026-04-25 17:53 | 28.66722 | -97.64273 | 2104 ft | 222 kts | 196° |
| 2026-04-25 17:53 | 28.65245 | -97.64770 | 2103 ft | 224 kts | 196° |
| 2026-04-25 17:53 | 28.63743 | -97.65273 | 2103 ft | 225 kts | 195° |
| 2026-04-25 17:53 | 28.62240 | -97.65778 | 2102 ft | 226 kts | 195° |
| 2026-04-25 17:54 | 28.60725 | -97.66288 | 2102 ft | 225 kts | 195° |
| 2026-04-25 17:54 | 28.59221 | -97.66791 | 2103 ft | 225 kts | 195° |
| 2026-04-25 17:54 | 28.57704 | -97.67301 | 2102 ft | 225 kts | 195° |
| 2026-04-25 17:54 | 28.56202 | -97.67806 | 2101 ft | 225 kts | 195° |
| 2026-04-25 17:55 | 28.54698 | -97.68313 | 2102 ft | 225 kts | 195° |
| 2026-04-25 17:55 | 28.53196 | -97.68817 | 2101 ft | 225 kts | 195° |
| 2026-04-25 17:55 | 28.51688 | -97.69320 | 2102 ft | 225 kts | 195° |
| 2026-04-25 17:55 | 28.50194 | -97.69821 | 2100 ft | 225 kts | 195° |
| 2026-04-25 17:56 | 28.48670 | -97.70333 | 2100 ft | 225 kts | 195° |
| 2026-04-25 17:56 | 28.47183 | -97.70831 | 2100 ft | 225 kts | 195° |
| 2026-04-25 17:56 | 28.45669 | -97.71337 | 2100 ft | 225 kts | 195° |
| 2026-04-25 17:56 | 28.44179 | -97.71838 | 2099 ft | 225 kts | 195° |
| 2026-04-25 17:57 | 28.42655 | -97.72347 | 2099 ft | 225 kts | 195° |
| 2026-04-25 17:57 | 28.41165 | -97.72846 | 2098 ft | 225 kts | 195° |
| 2026-04-25 17:57 | 28.39669 | -97.73348 | 2099 ft | 225 kts | 195° |
| 2026-04-25 17:57 | 28.39147 | -97.73523 | 2098 ft | 225 kts | 195° |
| 2026-04-25 17:58 | 28.36651 | -97.74355 | 2098 ft | 225 kts | 195° |
| 2026-04-25 17:58 | 28.35140 | -97.74860 | 2097 ft | 225 kts | 195° |
| 2026-04-25 17:58 | 28.33641 | -97.75362 | 2097 ft | 225 kts | 195° |
| 2026-04-25 17:58 | 28.32141 | -97.75863 | 2097 ft | 225 kts | 195° |
| 2026-04-25 17:59 | 28.30630 | -97.76366 | 2097 ft | 225 kts | 195° |
| 2026-04-25 17:59 | 28.29122 | -97.76869 | 2096 ft | 225 kts | 195° |
| 2026-04-25 17:59 | 28.27614 | -97.77374 | 2096 ft | 225 kts | 195° |
| 2026-04-25 17:59 | 28.26119 | -97.77872 | 2096 ft | 225 kts | 195° |
| 2026-04-25 18:00 | 28.24611 | -97.78375 | 2095 ft | 225 kts | 195° |
| 2026-04-25 18:00 | 28.23112 | -97.78876 | 2095 ft | 225 kts | 195° |
| 2026-04-25 18:00 | 28.21599 | -97.79381 | 2095 ft | 225 kts | 195° |
| 2026-04-25 18:00 | 28.20078 | -97.79530 | 2088 ft | 223 kts | 165° |
| 2026-04-25 18:01 | 28.18648 | -97.78848 | 2101 ft | 222 kts | 157° |
| 2026-04-25 18:01 | 28.17205 | -97.78168 | 2095 ft | 223 kts | 157° |
| 2026-04-25 18:01 | 28.15775 | -97.77490 | 2094 ft | 223 kts | 158° |
| 2026-04-25 18:01 | 28.14340 | -97.76811 | 2093 ft | 223 kts | 158° |
| 2026-04-25 18:02 | 28.12900 | -97.76131 | 2093 ft | 223 kts | 158° |
| 2026-04-25 18:02 | 28.11469 | -97.75458 | 2093 ft | 223 kts | 158° |
| 2026-04-25 18:02 | 28.10031 | -97.74779 | 2093 ft | 223 kts | 158° |
| 2026-04-25 18:02 | 28.08595 | -97.74102 | 2093 ft | 223 kts | 158° |
| 2026-04-25 18:03 | 28.07168 | -97.73429 | 2093 ft | 223 kts | 158° |
| 2026-04-25 18:03 | 28.05716 | -97.72745 | 2095 ft | 223 kts | 158° |
| 2026-04-25 18:03 | 28.04296 | -97.72077 | 2096 ft | 223 kts | 158° |
| 2026-04-25 18:03 | 28.02847 | -97.71395 | 2097 ft | 221 kts | 158° |
| 2026-04-25 18:04 | 28.01452 | -97.70740 | 2093 ft | 215 kts | 158° |
| 2026-04-25 18:04 | 28.00098 | -97.70103 | 2084 ft | 207 kts | 158° |
| 2026-04-25 18:04 | 27.98793 | -97.69489 | 2088 ft | 200 kts | 158° |
| 2026-04-25 18:04 | 27.97522 | -97.68891 | 2089 ft | 194 kts | 158° |
| 2026-04-25 18:05 | 27.96287 | -97.68310 | 2089 ft | 188 kts | 158° |
| 2026-04-25 18:05 | 27.95088 | -97.67748 | 2089 ft | 184 kts | 158° |
| 2026-04-25 18:05 | 27.93919 | -97.67197 | 2083 ft | 180 kts | 158° |
| 2026-04-25 18:05 | 27.92799 | -97.66671 | 2159 ft | 169 kts | 157° |
| 2026-04-25 18:06 | 27.91709 | -97.66159 | 2098 ft | 164 kts | 158° |
| 2026-04-25 18:06 | 27.90714 | -97.65587 | 2078 ft | 159 kts | 141° |
| 2026-04-25 18:06 | 27.89940 | -97.64719 | 2086 ft | 153 kts | 136° |
| 2026-04-25 18:06 | 27.89187 | -97.63895 | 2087 ft | 148 kts | 139° |
| 2026-04-25 18:07 | 27.88450 | -97.63101 | 2094 ft | 144 kts | 137° |
| 2026-04-25 18:07 | 27.87748 | -97.62334 | 2095 ft | 137 kts | 137° |
| 2026-04-25 18:07 | 27.87081 | -97.61608 | 2061 ft | 134 kts | 137° |
| 2026-04-25 18:07 | 27.86396 | -97.60858 | 1928 ft | 136 kts | 137° |
| 2026-04-25 18:08 | 27.85713 | -97.60111 | 1785 ft | 137 kts | 137° |
| 2026-04-25 18:08 | 27.85031 | -97.59367 | 1702 ft | 134 kts | 137° |
| 2026-04-25 18:08 | 27.84372 | -97.58643 | 1684 ft | 126 kts | 137° |
| 2026-04-25 18:08 | 27.83778 | -97.57991 | 1593 ft | 117 kts | 138° |
| 2026-04-25 18:09 | 27.83209 | -97.57370 | 1448 ft | 111 kts | 138° |
| 2026-04-25 18:09 | 27.82661 | -97.56767 | 1308 ft | 107 kts | 138° |
| 2026-04-25 18:09 | 27.82132 | -97.56190 | 1177 ft | 105 kts | 137° |
| 2026-04-25 18:09 | 27.81958 | -97.55999 | 1133 ft | 104 kts | 138° |
| 2026-04-25 18:10 | 27.81097 | -97.55059 | 919 ft | 102 kts | 137° |
| 2026-04-25 18:10 | 27.80586 | -97.54498 | 792 ft | 101 kts | 136° |
| 2026-04-25 18:10 | 27.80083 | -97.53949 | 662 ft | 100 kts | 137° |
| 2026-04-25 18:10 | 27.79587 | -97.53391 | 513 ft | 102 kts | 134° |
| 2026-04-25 18:11 | 27.79083 | -97.52834 | 382 ft | 101 kts | 136° |
| 2026-04-25 18:11 | 27.78580 | -97.52283 | 244 ft | 101 kts | 135° |
| 2026-04-25 18:11 | 27.78076 | -97.51738 | 112 ft | 100 kts | 136° |
| 2026-04-25 18:11 | 27.77594 | -97.51218 | 48 ft | 87 kts | 136° |
| 2026-04-25 18:12 | 27.77231 | -97.50832 | 39 ft | 43 kts | 133° |
| 2026-04-25 18:12 | 27.77033 | -97.50611 | 39 ft | 37 kts | 135° |
| 2026-04-25 18:12 | 27.76898 | -97.50432 | 39 ft | 21 kts | 110° |
| 2026-04-25 18:12 | 27.76863 | -97.50306 | 39 ft | 16 kts | 105° |
| 2026-04-25 18:13 | 27.76837 | -97.50200 | 39 ft | 12 kts | 105° |
| 2026-04-25 18:13 | 27.76863 | -97.50164 | 39 ft | 7 kts | 345° |
| 2026-04-25 18:13 | 27.76906 | -97.50207 | 39 ft | 10 kts | 316° |
| 2026-04-25 18:14 | 27.77064 | -97.50380 | 39 ft | 18 kts | 315° |
| 2026-04-25 18:14 | 27.77157 | -97.50482 | 39 ft | 18 kts | 315° |
| 2026-04-25 18:14 | 27.77230 | -97.50510 | 39 ft | 11 kts | 35° |
| 2026-04-25 18:14 | 27.77256 | -97.50433 | 39 ft | 11 kts | 89° |
| 2026-04-25 18:15 | 27.77316 | -97.50408 | 39 ft | 10 kts | 336° |
| 2026-04-25 18:15 | 27.77375 | -97.50460 | 39 ft | 11 kts | 316° |
| 2026-04-25 18:15 | 27.77434 | -97.50523 | 39 ft | 12 kts | 316° |
| 2026-04-25 18:15 | 27.77496 | -97.50575 | 39 ft | 10 kts | 3° |
| 2026-04-25 18:16 | 27.77539 | -97.50536 | 40 ft | 7 kts | 47° |
| 2026-04-25 18:16 | 27.77580 | -97.50532 | 40 ft | 6 kts | 320° |
| 2026-04-25 18:16 | 27.77646 | -97.50603 | 41 ft | 6 kts | 314° |
| 2026-04-25 18:17 | 27.77682 | -97.50594 | 41 ft | 6 kts | 57° |
| 2026-04-25 18:17 | 27.77686 | -97.50569 | 41 ft | 0 kts | 116° |
| 2026-04-25 18:17 | 27.77684 | -97.50567 | 41 ft | 0 kts | 135° |
| 2026-04-25 18:18 | 27.77673 | -97.50556 | 40 ft | 6 kts | 142° |
| 2026-04-25 18:18 | 27.77601 | -97.50542 | 40 ft | 14 kts | 174° |
| 2026-04-25 18:18 | 27.77503 | -97.50569 | 39 ft | 15 kts | 191° |
| 2026-04-25 18:19 | 27.77419 | -97.50512 | 39 ft | 14 kts | 136° |
| 2026-04-25 18:19 | 27.77366 | -97.50418 | 39 ft | 14 kts | 82° |
| 2026-04-25 18:19 | 27.77378 | -97.50320 | 39 ft | 9 kts | 89° |
| 2026-04-25 18:19 | 27.77379 | -97.50278 | 39 ft | 0 kts | 90° |